sensor_id;sensor_type;location;lat;lon;timestamp;temperature;humidity
7196;DHT22;3639;51.308;5.624;2024-03-22T00:01:48;11.50;99.90
7196;DHT22;3639;51.308;5.624;2024-03-22T00:04:15;11.50;99.90
7196;DHT22;3639;51.308;5.624;2024-03-22T00:06:42;11.40;99.90
7196;DHT22;3639;51.308;5.624;2024-03-22T00:09:08;11.40;99.90
7196;DHT22;3639;51.308;5.624;2024-03-22T00:11:35;11.50;99.90
7196;DHT22;3639;51.308;5.624;2024-03-22T00:14:01;11.50;99.90
7196;DHT22;3639;51.308;5.624;2024-03-22T00:16:27;11.40;99.90
7196;DHT22;3639;51.308;5.624;2024-03-22T00:18:53;11.50;99.90
7196;DHT22;3639;51.308;5.624;2024-03-22T00:21:18;11.50;99.90
7196;DHT22;3639;51.308;5.624;2024-03-22T00:23:45;11.50;99.90
7196;DHT22;3639;51.308;5.624;2024-03-22T00:26:11;11.50;99.90
7196;DHT22;3639;51.308;5.624;2024-03-22T00:28:36;11.50;99.90
7196;DHT22;3639;51.308;5.624;2024-03-22T00:31:02;11.60;99.90
7196;DHT22;3639;51.308;5.624;2024-03-22T00:33:28;11.70;99.90
7196;DHT22;3639;51.308;5.624;2024-03-22T00:35:53;11.70;99.90
7196;DHT22;3639;51.308;5.624;2024-03-22T00:38:19;11.70;99.90
7196;DHT22;3639;51.308;5.624;2024-03-22T00:40:44;11.70;99.90
7196;DHT22;3639;51.308;5.624;2024-03-22T00:43:10;11.60;99.90
7196;DHT22;3639;51.308;5.624;2024-03-22T00:45:35;11.50;99.90
7196;DHT22;3639;51.308;5.624;2024-03-22T00:48:01;11.60;99.90
7196;DHT22;3639;51.308;5.624;2024-03-22T00:50:27;11.60;99.90
7196;DHT22;3639;51.308;5.624;2024-03-22T00:52:54;11.70;99.90
7196;DHT22;3639;51.308;5.624;2024-03-22T00:55:22;11.60;99.90
7196;DHT22;3639;51.308;5.624;2024-03-22T00:57:47;11.70;99.90
7196;DHT22;3639;51.308;5.624;2024-03-22T01:00:13;11.70;99.90
7196;DHT22;3639;51.308;5.624;2024-03-22T01:02:40;11.80;99.90
7196;DHT22;3639;51.308;5.624;2024-03-22T01:05:05;11.70;99.90
7196;DHT22;3639;51.308;5.624;2024-03-22T01:07:31;11.70;99.90
7196;DHT22;3639;51.308;5.624;2024-03-22T01:09:56;11.70;99.90
7196;DHT22;3639;51.308;5.624;2024-03-22T01:12:22;11.70;99.90
7196;DHT22;3639;51.308;5.624;2024-03-22T01:14:48;11.70;99.90
7196;DHT22;3639;51.308;5.624;2024-03-22T01:17:13;11.70;99.90
7196;DHT22;3639;51.308;5.624;2024-03-22T01:19:39;11.70;99.90
7196;DHT22;3639;51.308;5.624;2024-03-22T01:22:04;11.80;99.90
7196;DHT22;3639;51.308;5.624;2024-03-22T01:31:14;11.80;99.90
7196;DHT22;3639;51.308;5.624;2024-03-22T01:33:41;11.70;99.90
7196;DHT22;3639;51.308;5.624;2024-03-22T01:36:07;11.70;99.90
7196;DHT22;3639;51.308;5.624;2024-03-22T01:38:32;11.70;99.90
7196;DHT22;3639;51.308;5.624;2024-03-22T01:40:58;11.80;99.90
7196;DHT22;3639;51.308;5.624;2024-03-22T01:43:23;11.90;99.90
7196;DHT22;3639;51.308;5.624;2024-03-22T01:45:49;11.80;99.90
7196;DHT22;3639;51.308;5.624;2024-03-22T01:48:15;11.80;99.90
7196;DHT22;3639;51.308;5.624;2024-03-22T01:50:41;11.70;99.90
7196;DHT22;3639;51.308;5.624;2024-03-22T01:53:08;11.80;99.90
7196;DHT22;3639;51.308;5.624;2024-03-22T01:55:34;11.80;99.90
7196;DHT22;3639;51.308;5.624;2024-03-22T01:58:00;11.80;99.90
7196;DHT22;3639;51.308;5.624;2024-03-22T02:00:25;11.90;99.90
7196;DHT22;3639;51.308;5.624;2024-03-22T02:02:51;11.90;99.90
7196;DHT22;3639;51.308;5.624;2024-03-22T02:05:17;11.90;99.90
7196;DHT22;3639;51.308;5.624;2024-03-22T02:07:47;11.90;99.90
7196;DHT22;3639;51.308;5.624;2024-03-22T02:10:13;11.80;99.90
7196;DHT22;3639;51.308;5.624;2024-03-22T02:12:40;11.80;99.90
7196;DHT22;3639;51.308;5.624;2024-03-22T02:15:06;11.80;99.90
7196;DHT22;3639;51.308;5.624;2024-03-22T02:17:32;11.90;99.90
7196;DHT22;3639;51.308;5.624;2024-03-22T02:19:59;11.90;99.90
7196;DHT22;3639;51.308;5.624;2024-03-22T02:22:25;11.90;99.90
7196;DHT22;3639;51.308;5.624;2024-03-22T02:24:51;11.80;99.90
7196;DHT22;3639;51.308;5.624;2024-03-22T02:27:16;11.80;99.90
7196;DHT22;3639;51.308;5.624;2024-03-22T02:29:42;11.80;99.90
7196;DHT22;3639;51.308;5.624;2024-03-22T02:32:07;11.80;99.90
7196;DHT22;3639;51.308;5.624;2024-03-22T02:34:33;11.70;99.90
7196;DHT22;3639;51.308;5.624;2024-03-22T02:36:58;11.70;99.90
7196;DHT22;3639;51.308;5.624;2024-03-22T02:39:24;11.70;99.90
7196;DHT22;3639;51.308;5.624;2024-03-22T02:41:51;11.60;99.90
7196;DHT22;3639;51.308;5.624;2024-03-22T02:44:16;11.50;99.90
7196;DHT22;3639;51.308;5.624;2024-03-22T02:46:42;11.50;99.90
7196;DHT22;3639;51.308;5.624;2024-03-22T02:49:07;11.40;99.90
7196;DHT22;3639;51.308;5.624;2024-03-22T02:51:33;11.30;99.90
7196;DHT22;3639;51.308;5.624;2024-03-22T02:53:58;11.30;99.90
7196;DHT22;3639;51.308;5.624;2024-03-22T02:56:24;11.20;99.90
7196;DHT22;3639;51.308;5.624;2024-03-22T02:58:50;11.30;99.90
7196;DHT22;3639;51.308;5.624;2024-03-22T03:01:15;11.30;99.90
7196;DHT22;3639;51.308;5.624;2024-03-22T03:03:41;11.40;99.90
7196;DHT22;3639;51.308;5.624;2024-03-22T03:06:06;11.40;99.90
7196;DHT22;3639;51.308;5.624;2024-03-22T03:08:32;11.30;99.90
7196;DHT22;3639;51.308;5.624;2024-03-22T03:10:59;11.40;99.90
7196;DHT22;3639;51.308;5.624;2024-03-22T03:13:24;11.40;99.90
7196;DHT22;3639;51.308;5.624;2024-03-22T03:15:51;11.40;99.90
7196;DHT22;3639;51.308;5.624;2024-03-22T03:18:17;11.50;99.90
7196;DHT22;3639;51.308;5.624;2024-03-22T03:20:43;11.50;99.90
7196;DHT22;3639;51.308;5.624;2024-03-22T03:23:08;11.40;99.90
7196;DHT22;3639;51.308;5.624;2024-03-22T03:25:34;11.40;99.90
7196;DHT22;3639;51.308;5.624;2024-03-22T03:28:00;11.40;99.90
7196;DHT22;3639;51.308;5.624;2024-03-22T03:30:25;11.50;99.90
7196;DHT22;3639;51.308;5.624;2024-03-22T03:32:51;11.50;99.90
7196;DHT22;3639;51.308;5.624;2024-03-22T03:35:16;11.50;99.90
7196;DHT22;3639;51.308;5.624;2024-03-22T03:37:42;11.50;99.90
7196;DHT22;3639;51.308;5.624;2024-03-22T03:40:08;11.40;99.90
7196;DHT22;3639;51.308;5.624;2024-03-22T03:42:34;11.40;99.90
7196;DHT22;3639;51.308;5.624;2024-03-22T03:44:59;11.50;99.90
7196;DHT22;3639;51.308;5.624;2024-03-22T03:47:25;11.50;99.90
7196;DHT22;3639;51.308;5.624;2024-03-22T03:49:50;11.50;99.90
7196;DHT22;3639;51.308;5.624;2024-03-22T03:52:17;11.50;99.90
7196;DHT22;3639;51.308;5.624;2024-03-22T03:54:43;11.40;99.90
7196;DHT22;3639;51.308;5.624;2024-03-22T03:57:08;11.50;99.90
7196;DHT22;3639;51.308;5.624;2024-03-22T03:59:34;11.50;99.90
7196;DHT22;3639;51.308;5.624;2024-03-22T04:02:00;11.40;99.90
7196;DHT22;3639;51.308;5.624;2024-03-22T04:04:25;11.50;99.90
7196;DHT22;3639;51.308;5.624;2024-03-22T04:06:51;11.40;99.90
7196;DHT22;3639;51.308;5.624;2024-03-22T04:09:16;11.40;99.90
7196;DHT22;3639;51.308;5.624;2024-03-22T04:11:42;11.50;99.90
7196;DHT22;3639;51.308;5.624;2024-03-22T04:14:07;11.50;99.90
7196;DHT22;3639;51.308;5.624;2024-03-22T04:16:33;11.50;99.90
7196;DHT22;3639;51.308;5.624;2024-03-22T04:18:58;11.50;99.90
7196;DHT22;3639;51.308;5.624;2024-03-22T04:21:24;11.50;99.90
7196;DHT22;3639;51.308;5.624;2024-03-22T04:23:50;11.60;99.90
7196;DHT22;3639;51.308;5.624;2024-03-22T04:26:15;11.60;99.90
7196;DHT22;3639;51.308;5.624;2024-03-22T04:28:41;11.70;99.90
7196;DHT22;3639;51.308;5.624;2024-03-22T04:31:09;11.60;99.90
7196;DHT22;3639;51.308;5.624;2024-03-22T04:33:36;11.70;99.90
7196;DHT22;3639;51.308;5.624;2024-03-22T04:36:02;11.80;99.90
7196;DHT22;3639;51.308;5.624;2024-03-22T04:38:28;11.70;99.90
7196;DHT22;3639;51.308;5.624;2024-03-22T04:40:54;11.70;99.90
7196;DHT22;3639;51.308;5.624;2024-03-22T04:43:20;11.70;99.90
7196;DHT22;3639;51.308;5.624;2024-03-22T04:45:47;11.70;99.90
7196;DHT22;3639;51.308;5.624;2024-03-22T04:48:14;11.70;99.90
7196;DHT22;3639;51.308;5.624;2024-03-22T04:50:40;11.70;99.90
7196;DHT22;3639;51.308;5.624;2024-03-22T04:53:06;11.80;99.90
7196;DHT22;3639;51.308;5.624;2024-03-22T04:55:32;11.80;99.90
7196;DHT22;3639;51.308;5.624;2024-03-22T04:58:00;11.80;99.90
7196;DHT22;3639;51.308;5.624;2024-03-22T05:00:26;11.80;99.90
7196;DHT22;3639;51.308;5.624;2024-03-22T05:02:52;11.70;99.90
7196;DHT22;3639;51.308;5.624;2024-03-22T05:05:18;11.80;99.90
7196;DHT22;3639;51.308;5.624;2024-03-22T05:07:43;11.80;99.90
7196;DHT22;3639;51.308;5.624;2024-03-22T05:10:09;11.80;99.90
7196;DHT22;3639;51.308;5.624;2024-03-22T05:12:35;11.70;99.90
7196;DHT22;3639;51.308;5.624;2024-03-22T05:15:02;11.70;99.90
7196;DHT22;3639;51.308;5.624;2024-03-22T05:17:29;11.70;99.90
7196;DHT22;3639;51.308;5.624;2024-03-22T05:19:57;11.60;99.90
7196;DHT22;3639;51.308;5.624;2024-03-22T05:22:23;11.60;99.90
7196;DHT22;3639;51.308;5.624;2024-03-22T05:24:48;11.60;99.90
7196;DHT22;3639;51.308;5.624;2024-03-22T05:27:14;11.70;99.90
7196;DHT22;3639;51.308;5.624;2024-03-22T05:29:39;11.70;99.90
7196;DHT22;3639;51.308;5.624;2024-03-22T05:32:05;11.70;99.90
7196;DHT22;3639;51.308;5.624;2024-03-22T05:34:31;11.70;99.90
7196;DHT22;3639;51.308;5.624;2024-03-22T05:36:56;11.70;99.90
7196;DHT22;3639;51.308;5.624;2024-03-22T05:39:22;11.70;99.90
7196;DHT22;3639;51.308;5.624;2024-03-22T05:41:47;11.70;99.90
7196;DHT22;3639;51.308;5.624;2024-03-22T05:44:13;11.70;99.90
7196;DHT22;3639;51.308;5.624;2024-03-22T05:46:38;11.60;99.90
7196;DHT22;3639;51.308;5.624;2024-03-22T05:49:04;11.60;99.90
7196;DHT22;3639;51.308;5.624;2024-03-22T05:51:30;11.60;99.90
7196;DHT22;3639;51.308;5.624;2024-03-22T05:53:56;11.60;99.90
7196;DHT22;3639;51.308;5.624;2024-03-22T05:56:22;11.50;99.90
7196;DHT22;3639;51.308;5.624;2024-03-22T05:58:48;11.60;99.90
7196;DHT22;3639;51.308;5.624;2024-03-22T06:01:13;11.60;99.90
7196;DHT22;3639;51.308;5.624;2024-03-22T06:03:39;11.50;99.90
7196;DHT22;3639;51.308;5.624;2024-03-22T06:06:05;11.50;99.90
7196;DHT22;3639;51.308;5.624;2024-03-22T06:08:30;11.50;99.90
7196;DHT22;3639;51.308;5.624;2024-03-22T06:11:00;11.50;99.90
7196;DHT22;3639;51.308;5.624;2024-03-22T06:13:26;11.50;99.90
7196;DHT22;3639;51.308;5.624;2024-03-22T06:15:52;11.50;99.90
7196;DHT22;3639;51.308;5.624;2024-03-22T06:18:17;11.50;99.90
7196;DHT22;3639;51.308;5.624;2024-03-22T06:20:43;11.60;99.90
7196;DHT22;3639;51.308;5.624;2024-03-22T06:23:09;11.60;99.90
7196;DHT22;3639;51.308;5.624;2024-03-22T06:25:34;11.70;99.90
7196;DHT22;3639;51.308;5.624;2024-03-22T06:28:00;11.70;99.90
7196;DHT22;3639;51.308;5.624;2024-03-22T06:30:26;11.70;99.90
7196;DHT22;3639;51.308;5.624;2024-03-22T06:32:53;11.70;99.90
7196;DHT22;3639;51.308;5.624;2024-03-22T06:35:19;11.70;99.90
7196;DHT22;3639;51.308;5.624;2024-03-22T06:37:44;11.80;99.90
7196;DHT22;3639;51.308;5.624;2024-03-22T06:40:11;11.90;99.90
7196;DHT22;3639;51.308;5.624;2024-03-22T06:42:37;11.80;99.90
7196;DHT22;3639;51.308;5.624;2024-03-22T06:45:03;11.90;99.90
7196;DHT22;3639;51.308;5.624;2024-03-22T06:47:29;11.90;99.90
7196;DHT22;3639;51.308;5.624;2024-03-22T06:49:54;11.90;99.90
7196;DHT22;3639;51.308;5.624;2024-03-22T06:52:20;11.90;99.90
7196;DHT22;3639;51.308;5.624;2024-03-22T06:54:46;12.00;99.90
7196;DHT22;3639;51.308;5.624;2024-03-22T06:57:12;12.10;99.90
7196;DHT22;3639;51.308;5.624;2024-03-22T06:59:37;12.20;99.90
7196;DHT22;3639;51.308;5.624;2024-03-22T07:02:03;12.20;99.90
7196;DHT22;3639;51.308;5.624;2024-03-22T07:04:29;12.20;99.90
7196;DHT22;3639;51.308;5.624;2024-03-22T07:06:55;12.20;99.90
7196;DHT22;3639;51.308;5.624;2024-03-22T07:09:20;12.20;99.90
7196;DHT22;3639;51.308;5.624;2024-03-22T07:11:46;12.20;99.90
7196;DHT22;3639;51.308;5.624;2024-03-22T07:14:12;12.30;99.90
7196;DHT22;3639;51.308;5.624;2024-03-22T07:16:37;12.30;99.90
7196;DHT22;3639;51.308;5.624;2024-03-22T07:19:03;12.30;99.90
7196;DHT22;3639;51.308;5.624;2024-03-22T07:21:29;12.30;99.90
7196;DHT22;3639;51.308;5.624;2024-03-22T07:23:55;12.30;99.90
7196;DHT22;3639;51.308;5.624;2024-03-22T07:26:20;12.20;99.90
7196;DHT22;3639;51.308;5.624;2024-03-22T07:28:46;12.20;99.90
7196;DHT22;3639;51.308;5.624;2024-03-22T07:31:12;12.20;99.90
7196;DHT22;3639;51.308;5.624;2024-03-22T07:33:37;12.10;99.90
7196;DHT22;3639;51.308;5.624;2024-03-22T07:36:04;12.10;99.90
7196;DHT22;3639;51.308;5.624;2024-03-22T07:38:30;12.10;99.90
7196;DHT22;3639;51.308;5.624;2024-03-22T07:40:56;12.10;99.90
7196;DHT22;3639;51.308;5.624;2024-03-22T07:43:22;12.10;99.90
7196;DHT22;3639;51.308;5.624;2024-03-22T07:45:47;12.20;99.90
7196;DHT22;3639;51.308;5.624;2024-03-22T07:48:16;12.20;99.90
7196;DHT22;3639;51.308;5.624;2024-03-22T07:50:42;12.40;99.90
7196;DHT22;3639;51.308;5.624;2024-03-22T07:53:07;12.50;99.90
7196;DHT22;3639;51.308;5.624;2024-03-22T07:55:33;12.60;99.90
7196;DHT22;3639;51.308;5.624;2024-03-22T07:57:59;12.80;99.90
7196;DHT22;3639;51.308;5.624;2024-03-22T08:00:24;12.90;99.90
7196;DHT22;3639;51.308;5.624;2024-03-22T08:02:52;13.00;99.90
7196;DHT22;3639;51.308;5.624;2024-03-22T08:05:18;12.90;99.90
7196;DHT22;3639;51.308;5.624;2024-03-22T08:07:45;12.90;99.90
7196;DHT22;3639;51.308;5.624;2024-03-22T08:10:10;13.00;99.90
7196;DHT22;3639;51.308;5.624;2024-03-22T08:12:36;13.00;99.90
7196;DHT22;3639;51.308;5.624;2024-03-22T08:15:02;13.00;99.90
7196;DHT22;3639;51.308;5.624;2024-03-22T08:17:28;12.90;99.90
7196;DHT22;3639;51.308;5.624;2024-03-22T08:19:53;13.00;99.90
7196;DHT22;3639;51.308;5.624;2024-03-22T08:22:19;13.10;99.90
7196;DHT22;3639;51.308;5.624;2024-03-22T08:24:44;13.10;99.90
7196;DHT22;3639;51.308;5.624;2024-03-22T08:27:10;13.10;99.90
7196;DHT22;3639;51.308;5.624;2024-03-22T08:29:36;13.20;99.90
7196;DHT22;3639;51.308;5.624;2024-03-22T08:32:01;13.30;99.90
7196;DHT22;3639;51.308;5.624;2024-03-22T08:34:30;13.40;99.90
7196;DHT22;3639;51.308;5.624;2024-03-22T08:36:55;13.50;99.90
7196;DHT22;3639;51.308;5.624;2024-03-22T08:39:21;13.50;99.90
7196;DHT22;3639;51.308;5.624;2024-03-22T08:41:47;13.60;99.90
7196;DHT22;3639;51.308;5.624;2024-03-22T08:44:13;13.60;99.90
7196;DHT22;3639;51.308;5.624;2024-03-22T08:46:38;13.60;99.90
7196;DHT22;3639;51.308;5.624;2024-03-22T08:49:04;13.60;99.90
7196;DHT22;3639;51.308;5.624;2024-03-22T08:51:30;13.60;99.90
7196;DHT22;3639;51.308;5.624;2024-03-22T08:53:56;13.50;99.90
7196;DHT22;3639;51.308;5.624;2024-03-22T08:56:21;13.60;99.90
7196;DHT22;3639;51.308;5.624;2024-03-22T08:58:47;13.60;99.90
7196;DHT22;3639;51.308;5.624;2024-03-22T09:01:12;13.50;99.90
7196;DHT22;3639;51.308;5.624;2024-03-22T09:03:38;13.40;99.90
7196;DHT22;3639;51.308;5.624;2024-03-22T09:06:04;13.40;99.90
7196;DHT22;3639;51.308;5.624;2024-03-22T09:08:30;13.40;99.90
7196;DHT22;3639;51.308;5.624;2024-03-22T09:10:56;13.40;99.90
7196;DHT22;3639;51.308;5.624;2024-03-22T09:13:22;13.40;99.90
7196;DHT22;3639;51.308;5.624;2024-03-22T09:15:48;13.40;99.90
7196;DHT22;3639;51.308;5.624;2024-03-22T09:18:13;13.40;99.90
7196;DHT22;3639;51.308;5.624;2024-03-22T09:20:39;13.40;99.90
7196;DHT22;3639;51.308;5.624;2024-03-22T09:23:04;13.50;99.90
7196;DHT22;3639;51.308;5.624;2024-03-22T09:25:30;13.50;99.90
7196;DHT22;3639;51.308;5.624;2024-03-22T09:27:55;13.60;99.90
7196;DHT22;3639;51.308;5.624;2024-03-22T09:30:21;13.60;99.90
7196;DHT22;3639;51.308;5.624;2024-03-22T09:32:47;13.60;99.90
7196;DHT22;3639;51.308;5.624;2024-03-22T09:35:13;13.50;99.90
7196;DHT22;3639;51.308;5.624;2024-03-22T09:37:43;13.50;99.90
7196;DHT22;3639;51.308;5.624;2024-03-22T09:40:09;13.60;99.90
7196;DHT22;3639;51.308;5.624;2024-03-22T09:42:38;13.60;99.90
7196;DHT22;3639;51.308;5.624;2024-03-22T09:45:10;13.60;99.90
7196;DHT22;3639;51.308;5.624;2024-03-22T09:47:36;13.60;99.90
7196;DHT22;3639;51.308;5.624;2024-03-22T09:50:06;13.70;99.90
7196;DHT22;3639;51.308;5.624;2024-03-22T09:52:37;13.70;99.90
7196;DHT22;3639;51.308;5.624;2024-03-22T09:55:04;13.70;99.90
7196;DHT22;3639;51.308;5.624;2024-03-22T09:57:31;13.80;99.90
7196;DHT22;3639;51.308;5.624;2024-03-22T09:59:57;13.70;99.90
7196;DHT22;3639;51.308;5.624;2024-03-22T10:02:23;13.70;99.90
7196;DHT22;3639;51.308;5.624;2024-03-22T10:04:50;13.70;99.90
7196;DHT22;3639;51.308;5.624;2024-03-22T10:07:17;13.80;99.90
7196;DHT22;3639;51.308;5.624;2024-03-22T10:09:42;13.90;99.90
7196;DHT22;3639;51.308;5.624;2024-03-22T10:12:09;13.90;99.90
7196;DHT22;3639;51.308;5.624;2024-03-22T10:14:35;13.90;99.90
7196;DHT22;3639;51.308;5.624;2024-03-22T10:17:02;13.90;99.90
7196;DHT22;3639;51.308;5.624;2024-03-22T10:19:28;13.90;99.90
7196;DHT22;3639;51.308;5.624;2024-03-22T10:22:04;13.90;99.90
7196;DHT22;3639;51.308;5.624;2024-03-22T10:24:30;14.00;99.90
7196;DHT22;3639;51.308;5.624;2024-03-22T10:26:56;14.10;99.90
7196;DHT22;3639;51.308;5.624;2024-03-22T10:29:22;14.10;99.90
7196;DHT22;3639;51.308;5.624;2024-03-22T10:31:49;14.10;99.90
7196;DHT22;3639;51.308;5.624;2024-03-22T10:34:16;14.00;99.90
7196;DHT22;3639;51.308;5.624;2024-03-22T10:36:44;14.00;99.90
7196;DHT22;3639;51.308;5.624;2024-03-22T10:39:11;13.90;99.90
7196;DHT22;3639;51.308;5.624;2024-03-22T10:41:38;13.80;99.90
7196;DHT22;3639;51.308;5.624;2024-03-22T10:44:04;13.70;99.90
7196;DHT22;3639;51.308;5.624;2024-03-22T10:46:30;13.70;99.90
7196;DHT22;3639;51.308;5.624;2024-03-22T10:48:57;13.60;99.90
7196;DHT22;3639;51.308;5.624;2024-03-22T10:51:25;13.60;99.90
7196;DHT22;3639;51.308;5.624;2024-03-22T10:53:53;13.60;99.90
7196;DHT22;3639;51.308;5.624;2024-03-22T10:56:21;13.60;99.90
7196;DHT22;3639;51.308;5.624;2024-03-22T10:58:48;13.50;99.90
7196;DHT22;3639;51.308;5.624;2024-03-22T11:01:27;13.40;99.90
7196;DHT22;3639;51.308;5.624;2024-03-22T11:04:05;13.40;99.90
7196;DHT22;3639;51.308;5.624;2024-03-22T11:06:37;13.40;99.90
7196;DHT22;3639;51.308;5.624;2024-03-22T11:09:02;13.40;99.90
7196;DHT22;3639;51.308;5.624;2024-03-22T11:11:31;13.40;99.90
7196;DHT22;3639;51.308;5.624;2024-03-22T11:14:03;13.30;99.90
7196;DHT22;3639;51.308;5.624;2024-03-22T11:16:28;13.20;99.90
7196;DHT22;3639;51.308;5.624;2024-03-22T11:18:55;13.20;99.90
7196;DHT22;3639;51.308;5.624;2024-03-22T11:21:20;13.20;99.90
7196;DHT22;3639;51.308;5.624;2024-03-22T11:23:46;13.10;99.90
7196;DHT22;3639;51.308;5.624;2024-03-22T11:26:11;13.10;99.90
7196;DHT22;3639;51.308;5.624;2024-03-22T11:28:38;13.10;99.90
7196;DHT22;3639;51.308;5.624;2024-03-22T11:31:04;13.10;99.90
7196;DHT22;3639;51.308;5.624;2024-03-22T11:33:30;13.00;99.90
7196;DHT22;3639;51.308;5.624;2024-03-22T11:36:01;13.00;99.90
7196;DHT22;3639;51.308;5.624;2024-03-22T11:38:27;13.00;99.90
7196;DHT22;3639;51.308;5.624;2024-03-22T11:40:54;12.90;99.90
7196;DHT22;3639;51.308;5.624;2024-03-22T11:43:20;12.80;99.90
7196;DHT22;3639;51.308;5.624;2024-03-22T11:45:46;12.80;99.90
7196;DHT22;3639;51.308;5.624;2024-03-22T11:48:12;12.80;99.90
7196;DHT22;3639;51.308;5.624;2024-03-22T11:50:38;12.80;99.90
7196;DHT22;3639;51.308;5.624;2024-03-22T11:53:07;12.80;99.90
7196;DHT22;3639;51.308;5.624;2024-03-22T11:55:32;12.90;99.90
7196;DHT22;3639;51.308;5.624;2024-03-22T11:58:00;12.90;99.90
7196;DHT22;3639;51.308;5.624;2024-03-22T12:00:27;12.90;99.90
7196;DHT22;3639;51.308;5.624;2024-03-22T12:02:53;13.00;99.90
7196;DHT22;3639;51.308;5.624;2024-03-22T12:05:20;13.00;99.90
7196;DHT22;3639;51.308;5.624;2024-03-22T12:07:46;13.10;99.90
7196;DHT22;3639;51.308;5.624;2024-03-22T12:10:12;13.00;99.90
7196;DHT22;3639;51.308;5.624;2024-03-22T12:12:38;13.00;99.90
7196;DHT22;3639;51.308;5.624;2024-03-22T12:15:04;13.00;99.90
7196;DHT22;3639;51.308;5.624;2024-03-22T12:17:30;13.00;99.90
7196;DHT22;3639;51.308;5.624;2024-03-22T12:19:56;13.00;99.90
7196;DHT22;3639;51.308;5.624;2024-03-22T12:22:24;13.00;99.90
7196;DHT22;3639;51.308;5.624;2024-03-22T12:24:51;13.00;99.90
7196;DHT22;3639;51.308;5.624;2024-03-22T12:27:16;13.10;99.90
7196;DHT22;3639;51.308;5.624;2024-03-22T12:29:42;13.10;99.90
7196;DHT22;3639;51.308;5.624;2024-03-22T12:32:08;13.10;99.90
7196;DHT22;3639;51.308;5.624;2024-03-22T12:34:33;13.10;99.90
7196;DHT22;3639;51.308;5.624;2024-03-22T12:37:03;13.10;99.90
7196;DHT22;3639;51.308;5.624;2024-03-22T12:39:29;13.10;99.90
7196;DHT22;3639;51.308;5.624;2024-03-22T12:41:55;13.10;99.90
7196;DHT22;3639;51.308;5.624;2024-03-22T12:44:21;13.20;99.90
7196;DHT22;3639;51.308;5.624;2024-03-22T12:46:46;13.10;99.90
7196;DHT22;3639;51.308;5.624;2024-03-22T12:49:12;13.10;99.90
7196;DHT22;3639;51.308;5.624;2024-03-22T12:51:38;13.00;99.90
7196;DHT22;3639;51.308;5.624;2024-03-22T12:54:04;13.00;99.90
7196;DHT22;3639;51.308;5.624;2024-03-22T12:56:30;13.00;99.90
7196;DHT22;3639;51.308;5.624;2024-03-22T12:58:56;13.00;99.90
7196;DHT22;3639;51.308;5.624;2024-03-22T13:01:22;12.90;99.90
7196;DHT22;3639;51.308;5.624;2024-03-22T13:03:47;12.90;99.90
7196;DHT22;3639;51.308;5.624;2024-03-22T13:06:13;12.90;99.90
7196;DHT22;3639;51.308;5.624;2024-03-22T13:08:39;12.80;99.90
7196;DHT22;3639;51.308;5.624;2024-03-22T13:11:05;12.80;99.90
7196;DHT22;3639;51.308;5.624;2024-03-22T13:13:33;12.90;99.90
7196;DHT22;3639;51.308;5.624;2024-03-22T13:15:59;12.90;99.90
7196;DHT22;3639;51.308;5.624;2024-03-22T13:18:27;12.90;99.90
7196;DHT22;3639;51.308;5.624;2024-03-22T13:20:53;12.90;99.90
7196;DHT22;3639;51.308;5.624;2024-03-22T13:23:19;12.90;99.90
7196;DHT22;3639;51.308;5.624;2024-03-22T13:25:45;12.90;99.90
7196;DHT22;3639;51.308;5.624;2024-03-22T13:28:10;12.90;99.90
7196;DHT22;3639;51.308;5.624;2024-03-22T13:30:36;12.80;99.90
7196;DHT22;3639;51.308;5.624;2024-03-22T13:33:03;12.80;99.90
7196;DHT22;3639;51.308;5.624;2024-03-22T13:35:28;12.80;99.90
7196;DHT22;3639;51.308;5.624;2024-03-22T13:37:54;12.70;99.90
7196;DHT22;3639;51.308;5.624;2024-03-22T13:40:20;12.70;99.90
7196;DHT22;3639;51.308;5.624;2024-03-22T13:42:46;12.70;99.90
7196;DHT22;3639;51.308;5.624;2024-03-22T13:45:11;12.70;99.90
7196;DHT22;3639;51.308;5.624;2024-03-22T13:47:37;12.70;99.90
7196;DHT22;3639;51.308;5.624;2024-03-22T13:50:08;12.70;99.90
7196;DHT22;3639;51.308;5.624;2024-03-22T13:52:34;12.70;99.90
7196;DHT22;3639;51.308;5.624;2024-03-22T13:55:04;12.70;99.90
7196;DHT22;3639;51.308;5.624;2024-03-22T13:57:30;12.60;99.90
7196;DHT22;3639;51.308;5.624;2024-03-22T13:59:56;12.60;99.90
7196;DHT22;3639;51.308;5.624;2024-03-22T14:02:22;12.60;99.90
7196;DHT22;3639;51.308;5.624;2024-03-22T14:04:48;12.50;99.90
7196;DHT22;3639;51.308;5.624;2024-03-22T14:07:13;12.40;99.90
7196;DHT22;3639;51.308;5.624;2024-03-22T14:09:40;12.40;99.90
7196;DHT22;3639;51.308;5.624;2024-03-22T14:12:06;12.40;99.90
7196;DHT22;3639;51.308;5.624;2024-03-22T14:14:32;12.40;99.90
7196;DHT22;3639;51.308;5.624;2024-03-22T14:16:57;12.40;99.90
7196;DHT22;3639;51.308;5.624;2024-03-22T14:19:23;12.40;99.90
7196;DHT22;3639;51.308;5.624;2024-03-22T14:21:52;12.40;99.90
7196;DHT22;3639;51.308;5.624;2024-03-22T14:24:20;12.40;99.90
7196;DHT22;3639;51.308;5.624;2024-03-22T14:26:46;12.40;99.90
7196;DHT22;3639;51.308;5.624;2024-03-22T14:29:12;12.40;99.90
7196;DHT22;3639;51.308;5.624;2024-03-22T14:31:38;12.40;99.90
7196;DHT22;3639;51.308;5.624;2024-03-22T14:34:07;12.40;99.90
7196;DHT22;3639;51.308;5.624;2024-03-22T14:36:33;12.40;99.90
7196;DHT22;3639;51.308;5.624;2024-03-22T14:38:59;12.40;99.90
7196;DHT22;3639;51.308;5.624;2024-03-22T14:41:25;12.40;99.90
7196;DHT22;3639;51.308;5.624;2024-03-22T14:43:51;12.40;99.90
7196;DHT22;3639;51.308;5.624;2024-03-22T14:46:16;12.50;99.90
7196;DHT22;3639;51.308;5.624;2024-03-22T14:48:45;12.50;99.90
7196;DHT22;3639;51.308;5.624;2024-03-22T14:51:11;12.50;99.90
7196;DHT22;3639;51.308;5.624;2024-03-22T14:53:36;12.50;99.90
7196;DHT22;3639;51.308;5.624;2024-03-22T14:56:03;12.50;99.90
7196;DHT22;3639;51.308;5.624;2024-03-22T14:58:33;12.50;99.90
7196;DHT22;3639;51.308;5.624;2024-03-22T15:01:01;12.50;99.90
7196;DHT22;3639;51.308;5.624;2024-03-22T15:03:28;12.50;99.90
7196;DHT22;3639;51.308;5.624;2024-03-22T15:05:55;12.50;99.90
7196;DHT22;3639;51.308;5.624;2024-03-22T15:08:21;12.50;99.90
7196;DHT22;3639;51.308;5.624;2024-03-22T15:10:47;12.50;99.90
7196;DHT22;3639;51.308;5.624;2024-03-22T15:13:14;12.50;99.90
7196;DHT22;3639;51.308;5.624;2024-03-22T15:15:40;12.50;99.90
7196;DHT22;3639;51.308;5.624;2024-03-22T15:18:07;12.40;99.90
7196;DHT22;3639;51.308;5.624;2024-03-22T15:20:33;12.30;99.90
7196;DHT22;3639;51.308;5.624;2024-03-22T15:23:00;12.30;99.90
7196;DHT22;3639;51.308;5.624;2024-03-22T15:25:26;12.20;99.90
7196;DHT22;3639;51.308;5.624;2024-03-22T15:27:51;12.20;99.90
7196;DHT22;3639;51.308;5.624;2024-03-22T15:30:17;12.20;99.90
7196;DHT22;3639;51.308;5.624;2024-03-22T15:32:44;12.10;99.90
7196;DHT22;3639;51.308;5.624;2024-03-22T15:35:10;12.10;99.90
7196;DHT22;3639;51.308;5.624;2024-03-22T15:37:37;12.10;99.90
7196;DHT22;3639;51.308;5.624;2024-03-22T15:40:03;12.00;99.90
7196;DHT22;3639;51.308;5.624;2024-03-22T15:42:29;12.00;99.90
7196;DHT22;3639;51.308;5.624;2024-03-22T15:44:55;11.90;99.90
7196;DHT22;3639;51.308;5.624;2024-03-22T15:47:21;11.90;99.90
7196;DHT22;3639;51.308;5.624;2024-03-22T15:49:47;11.90;99.90
7196;DHT22;3639;51.308;5.624;2024-03-22T15:52:12;11.90;99.90
7196;DHT22;3639;51.308;5.624;2024-03-22T15:54:38;11.70;99.90
7196;DHT22;3639;51.308;5.624;2024-03-22T15:57:04;11.70;99.90
7196;DHT22;3639;51.308;5.624;2024-03-22T15:59:29;11.60;99.90
7196;DHT22;3639;51.308;5.624;2024-03-22T16:01:55;11.60;99.90